Time;durP1;ratioP1;P1;durP2;ratioP2;P2;SDS_P1;SDS_P2;PMS_P1;PMS_P2;Temp;Humidity;BMP_temperature;BMP_pressure;BME280_temperature;BME280_humidity;BME280_pressure;Samples;Min_cycle;Max_cycle;Signal;HPM_P1;HPM_P2
2023/05/22 00:02:01;;;;;;;;;14.67;12.00;;;;;19.53;94.95;101352.84;5057883;28;45389;-77
2023/05/22 00:04:28;;;;;;;;;10.00;10.00;;;;;19.55;94.81;101356.41;5036737;28;45328;-77
2023/05/22 00:06:54;;;;;;;;;11.00;9.33;;;;;19.55;95.30;101358.19;5058282;28;46068;-77
2023/05/22 00:09:19;;;;;;;;;13.00;10.00;;;;;19.54;94.97;101353.72;5057724;28;45180;-78
2023/05/22 00:11:45;;;;;;;;;11.33;10.00;;;;;19.53;95.14;101346.59;5054635;28;54351;-77
2023/05/22 00:14:12;;;;;;;;;12.00;9.67;;;;;19.50;95.19;101339.53;5058139;28;45323;-78
2023/05/22 00:16:37;;;;;;;;;8.33;8.33;;;;;19.52;95.50;101348.41;5057780;28;46621;-77
2023/05/22 00:19:03;;;;;;;;;9.67;9.00;;;;;19.53;95.48;101342.13;5050845;28;45306;-77
2023/05/22 00:21:33;;;;;;;;;13.67;9.67;;;;;19.52;95.13;101347.53;5057292;28;55575;-77
2023/05/22 00:23:59;;;;;;;;;9.67;8.33;;;;;19.52;95.58;101350.19;5040905;28;45426;-77
2023/05/22 00:26:25;;;;;;;;;11.67;9.00;;;;;19.50;95.30;101347.56;5057695;28;45712;-78
2023/05/22 00:28:50;;;;;;;;;10.00;9.33;;;;;19.47;95.30;101344.03;5049514;28;45358;-79
2023/05/22 00:31:15;;;;;;;;;10.00;10.00;;;;;19.47;95.76;101344.91;5036338;28;54825;-77
2023/05/22 00:33:41;;;;;;;;;12.00;11.67;;;;;19.46;95.40;101343.16;5058040;28;45171;-77
2023/05/22 00:36:06;;;;;;;;;9.00;9.00;;;;;19.47;95.70;101349.41;5057045;28;58667;-78
2023/05/22 00:38:34;;;;;;;;;9.67;9.67;;;;;19.46;95.59;101347.63;5057048;28;45290;-77
2023/05/22 00:41:00;;;;;;;;;11.00;10.00;;;;;19.44;95.70;101352.13;5057576;28;45405;-78
2023/05/22 00:43:26;;;;;;;;;8.00;8.00;;;;;19.42;95.32;101351.28;5058093;28;45448;-77
2023/05/22 00:45:53;;;;;;;;;13.00;10.67;;;;;19.40;95.35;101345.06;5057413;28;47338;-76
2023/05/22 00:48:19;;;;;;;;;9.00;9.00;;;;;19.38;95.90;101343.28;5056641;28;45616;-78
2023/05/22 00:50:45;;;;;;;;;11.00;9.00;;;;;19.38;95.65;101359.34;5057579;28;45842;-78
2023/05/22 00:53:11;;;;;;;;;11.67;11.00;;;;;19.34;95.40;101346.94;5057832;28;52186;-78
2023/05/22 00:55:37;;;;;;;;;10.67;9.00;;;;;19.31;94.97;101349.66;5055813;28;46724;-77
2023/05/22 00:58:06;;;;;;;;;11.67;10.67;;;;;19.26;94.81;101348.84;5038774;28;69273;-78
2023/05/22 01:00:33;;;;;;;;;8.00;8.00;;;;;19.21;95.24;101342.69;5057528;28;45212;-78
2023/05/22 01:02:59;;;;;;;;;9.67;8.33;;;;;19.16;95.31;101344.56;5038878;28;45502;-77
2023/05/22 01:05:25;;;;;;;;;11.00;9.33;;;;;19.13;95.07;101336.59;5055823;28;47057;-78
2023/05/22 01:07:52;;;;;;;;;12.33;11.67;;;;;19.08;95.02;101338.44;5056810;28;45410;-77
2023/05/22 01:10:18;;;;;;;;;10.67;9.00;;;;;19.00;94.86;101338.56;5057304;28;45392;-78
2023/05/22 01:12:46;;;;;;;;;10.00;10.00;;;;;18.97;95.09;101340.41;5057797;28;45562;-77
2023/05/22 01:15:23;;;;;;;;;11.67;9.00;;;;;18.94;94.80;101335.09;5055874;28;45601;-78
2023/05/22 01:18:18;;;;;;;;;12.00;8.00;;;;;18.91;94.80;101337.81;5036170;28;45492;-76
2023/05/22 01:21:05;;;;;;;;;10.00;10.00;;;;;18.82;94.48;101341.53;5034380;28;45243;-77
2023/05/22 01:23:59;;;;;;;;;11.00;9.67;;;;;18.76;94.87;101336.28;5038966;28;45515;-78
2023/05/22 01:26:24;;;;;;;;;8.67;8.67;;;;;18.71;95.26;101333.66;5055262;28;47783;-76
2023/05/22 01:29:08;;;;;;;;;10.00;9.00;;;;;18.67;95.09;101334.56;5054533;28;45196;-78
2023/05/22 01:31:38;;;;;;;;;11.00;9.67;;;;;18.65;94.87;101331.03;5057125;28;45489;-77
2023/05/22 01:34:06;;;;;;;;;14.67;10.00;;;;;18.63;94.79;101326.59;5057248;28;45224;-78
2023/05/22 01:36:34;;;;;;;;;11.00;9.67;;;;;18.58;95.52;101332.91;5038156;28;47391;-78
2023/05/22 01:39:03;;;;;;;;;10.67;10.67;;;;;18.58;95.42;101324.88;5038921;28;45390;-76
2023/05/22 01:41:28;;;;;;;;;13.33;9.00;;;;;18.57;95.42;101332.94;5055639;28;45454;-78
2023/05/22 01:43:54;;;;;;;;;12.00;9.00;;;;;18.55;95.89;101332.97;5037939;28;60022;-78
2023/05/22 01:46:19;;;;;;;;;13.00;10.00;;;;;18.55;95.64;101332.97;5051887;28;46748;-78
2023/05/22 01:48:45;;;;;;;;;15.00;10.00;;;;;18.52;95.64;101332.09;5049498;28;57714;-78
2023/05/22 01:51:13;;;;;;;;;16.33;11.33;;;;;18.50;95.93;101333.94;5056676;28;45411;-79
2023/05/22 01:53:47;;;;;;;;;9.67;8.00;;;;;18.49;96.04;101337.50;5056690;28;45197;-78
2023/05/22 01:56:15;;;;;;;;;12.67;10.67;;;;;18.45;96.16;101328.63;5038508;28;47500;-77
2023/05/22 01:58:49;;;;;;;;;9.33;8.00;;;;;18.45;96.35;101331.31;5026886;28;46503;-78
2023/05/22 02:01:16;;;;;;;;;10.00;9.00;;;;;18.44;96.52;101329.56;5038378;28;45317;-77
2023/05/22 02:03:42;;;;;;;;;14.00;9.00;;;;;18.43;96.31;101340.25;5053422;28;45596;-76
2023/05/22 02:06:09;;;;;;;;;11.00;9.33;;;;;18.39;96.42;101333.19;5055952;28;62422;-78
2023/05/22 02:08:37;;;;;;;;;10.33;8.00;;;;;18.36;96.49;101325.19;5056607;28;45330;-77
2023/05/22 02:11:04;;;;;;;;;8.33;8.33;;;;;18.32;96.23;101327.94;5056047;28;45390;-78
2023/05/22 02:13:29;;;;;;;;;8.00;8.00;;;;;18.32;96.35;101329.69;5038112;28;45400;-77
2023/05/22 02:15:57;;;;;;;;;9.00;8.67;;;;;18.31;96.11;101330.59;5055699;28;45636;-78
2023/05/22 02:18:28;;;;;;;;;12.67;9.33;;;;;18.31;96.16;101335.94;5037841;28;45570;-78
2023/05/22 02:20:55;;;;;;;;;9.00;6.00;;;;;18.31;96.49;101328.81;5056703;28;45561;-78
2023/05/22 02:23:20;;;;;;;;;9.00;9.00;;;;;18.33;96.55;101335.03;5056052;28;45306;-76
2023/05/22 02:25:46;;;;;;;;;12.33;10.00;;;;;18.34;96.32;101335.91;5055560;28;62705;-77
2023/05/22 02:28:11;;;;;;;;;8.67;8.67;;;;;18.35;96.48;101326.09;5055881;28;61391;-77
2023/05/22 02:30:36;;;;;;;;;10.00;10.00;;;;;18.33;96.55;101327.03;5055806;28;48811;-77
2023/05/22 02:33:04;;;;;;;;;10.00;10.00;;;;;18.30;96.66;101324.38;5056099;28;51812;-77
2023/05/22 02:35:30;;;;;;;;;9.33;8.00;;;;;18.29;96.48;101338.66;5055852;28;46741;-76
2023/05/22 02:37:56;;;;;;;;;9.33;9.33;;;;;18.25;96.42;101334.22;5054060;28;45375;-76
2023/05/22 02:40:21;;;;;;;;;11.00;10.33;;;;;18.21;96.49;101328.94;5030930;28;47004;-78
2023/05/22 02:42:47;;;;;;;;;10.00;10.00;;;;;18.21;96.50;101339.63;5056544;28;45350;-79
2023/05/22 02:45:12;;;;;;;;;10.67;9.00;;;;;18.20;96.62;101332.53;5055735;28;46597;-79
2023/05/22 02:47:37;;;;;;;;;11.00;10.67;;;;;18.17;96.92;101329.91;5054674;28;45454;-77
2023/05/22 02:50:03;;;;;;;;;7.67;7.67;;;;;18.15;96.78;101332.56;5055405;28;59779;-77
2023/05/22 02:52:29;;;;;;;;;7.33;7.33;;;;;18.12;96.97;101329.97;5055932;28;45414;-78
2023/05/22 02:54:55;;;;;;;;;12.67;11.33;;;;;18.12;96.79;101331.75;5055533;28;46476;-79
2023/05/22 02:57:20;;;;;;;;;10.67;9.00;;;;;18.08;97.60;101327.34;5055961;28;45177;-78
2023/05/22 02:59:45;;;;;;;;;9.00;8.33;;;;;18.09;97.18;101323.75;5055956;28;45450;-76
2023/05/22 03:02:11;;;;;;;;;12.33;10.67;;;;;18.04;97.16;101324.69;5055368;28;59402;-77
2023/05/22 03:04:37;;;;;;;;;7.67;7.67;;;;;18.03;97.23;101336.28;5055593;28;47569;-77
2023/05/22 03:07:06;;;;;;;;;11.00;8.67;;;;;18.01;97.28;101338.09;5050585;28;45486;-78
2023/05/22 03:09:31;;;;;;;;;8.67;5.33;;;;;17.99;97.47;101329.19;5055829;28;45471;-77
2023/05/22 03:11:56;;;;;;;;;8.67;7.67;;;;;17.98;97.53;101334.56;5055034;28;45354;-77
2023/05/22 03:14:22;;;;;;;;;9.33;9.00;;;;;17.96;97.48;101331.03;5055657;28;45367;-77
2023/05/22 03:16:47;;;;;;;;;10.67;7.00;;;;;17.96;97.64;101337.28;5054641;28;52916;-78
2023/05/22 03:19:14;;;;;;;;;10.67;10.00;;;;;17.95;97.88;101334.59;5054636;28;45287;-76
2023/05/22 03:21:40;;;;;;;;;8.00;8.00;;;;;17.95;97.74;101338.19;5055580;28;45212;-76
2023/05/22 03:24:06;;;;;;;;;12.00;12.00;;;;;17.93;97.78;101339.97;5054868;28;46628;-76
2023/05/22 03:26:32;;;;;;;;;21.00;12.00;;;;;17.90;97.73;101336.47;5057750;28;45491;-77
2023/05/22 03:28:58;;;;;;;;;11.00;9.67;;;;;17.85;97.60;101331.16;5040882;28;45700;-77
2023/05/22 03:31:28;;;;;;;;;14.33;10.67;;;;;17.82;97.93;101330.31;5040862;28;45853;-79
2023/05/22 03:33:53;;;;;;;;;11.33;9.00;;;;;17.77;98.13;101333.91;5058950;28;46580;-78
2023/05/22 03:36:20;;;;;;;;;10.00;10.00;;;;;17.71;98.05;101323.25;5058173;28;47056;-76
2023/05/22 03:38:45;;;;;;;;;12.33;9.33;;;;;17.70;98.13;101333.97;5056992;28;45399;-76
2023/05/22 03:41:11;;;;;;;;;10.00;9.67;;;;;17.67;98.12;101325.97;5058938;28;45529;-78
2023/05/22 03:43:36;;;;;;;;;10.67;10.67;;;;;17.65;98.46;101327.78;5058715;28;48125;-77
2023/05/22 03:46:01;;;;;;;;;10.67;9.33;;;;;17.62;98.87;101327.81;5040213;28;58054;-78
2023/05/22 03:48:27;;;;;;;;;13.00;11.00;;;;;17.58;99.29;101323.38;5049843;28;45898;-78
2023/05/22 03:50:52;;;;;;;;;11.33;7.33;;;;;17.55;99.21;101322.53;5058007;28;58417;-77
2023/05/22 03:53:17;;;;;;;;;12.33;10.67;;;;;17.54;99.06;101326.09;5057661;28;63199;-77
2023/05/22 03:55:43;;;;;;;;;10.33;9.00;;;;;17.53;99.52;101326.13;5058401;28;45332;-77
2023/05/22 03:58:08;;;;;;;;;14.00;10.33;;;;;17.51;99.71;101322.56;5058110;28;53226;-78
2023/05/22 04:00:33;;;;;;;;;13.00;11.00;;;;;17.51;99.92;101327.91;5058728;28;45516;-77
2023/05/22 04:02:59;;;;;;;;;11.33;9.67;;;;;17.50;99.98;101339.50;5056759;28;45615;-76
2023/05/22 04:05:25;;;;;;;;;9.67;9.00;;;;;17.49;100.00;101335.94;5058403;28;45366;-78
2023/05/22 04:07:50;;;;;;;;;14.00;11.00;;;;;17.48;100.00;101333.28;5058612;28;45425;-77
2023/05/22 04:10:15;;;;;;;;;11.67;11.67;;;;;17.48;100.00;101333.28;5058245;28;45466;-77
2023/05/22 04:12:41;;;;;;;;;13.00;11.67;;;;;17.46;100.00;101340.41;5056943;28;56504;-77
2023/05/22 04:15:07;;;;;;;;;11.67;9.67;;;;;17.47;100.00;101350.19;5057632;28;55105;-78
2023/05/22 04:17:33;;;;;;;;;11.33;10.33;;;;;17.45;100.00;101352.88;5058049;28;45291;-77
2023/05/22 04:19:59;;;;;;;;;9.33;9.00;;;;;17.47;100.00;101355.53;5058336;28;45502;-76
2023/05/22 04:22:29;;;;;;;;;10.67;10.00;;;;;17.48;100.00;101347.53;5057472;28;47416;-77
2023/05/22 04:24:55;;;;;;;;;10.00;9.00;;;;;17.50;100.00;101347.50;5058366;28;45291;-76
2023/05/22 04:27:21;;;;;;;;;9.67;8.33;;;;;17.50;100.00;101340.38;5056227;28;45406;-78
2023/05/22 04:29:47;;;;;;;;;11.00;9.00;;;;;17.49;100.00;101335.94;5058665;28;45354;-77
2023/05/22 04:32:17;;;;;;;;;11.00;8.67;;;;;17.51;100.00;101342.13;5057338;28;47229;-77
2023/05/22 04:34:44;;;;;;;;;9.67;8.67;;;;;17.54;100.00;101347.47;5058289;28;45323;-76
2023/05/22 04:37:10;;;;;;;;;9.67;9.67;;;;;17.57;100.00;101351.00;5056527;28;45325;-76
2023/05/22 04:39:36;;;;;;;;;12.00;10.67;;;;;17.61;100.00;101350.94;5058291;28;45502;-77
2023/05/22 04:42:04;;;;;;;;;17.00;10.00;;;;;17.61;100.00;101350.94;5057736;28;47673;-78
2023/05/22 04:44:33;;;;;;;;;9.67;8.00;;;;;17.66;100.00;101356.25;5057933;28;45426;-78
2023/05/22 04:47:01;;;;;;;;;9.00;9.00;;;;;17.67;100.00;101356.22;5057527;28;45359;-76
2023/05/22 04:49:27;;;;;;;;;12.67;11.00;;;;;17.69;100.00;101362.47;5056797;28;45542;-77
2023/05/22 04:51:54;;;;;;;;;11.00;8.00;;;;;17.69;100.00;101367.81;5057478;28;46189;-77
2023/05/22 04:54:19;;;;;;;;;13.33;10.67;;;;;17.70;100.00;101361.56;5039748;28;45344;-78
2023/05/22 04:56:44;;;;;;;;;7.67;7.00;;;;;17.72;100.00;101366.88;5057555;28;45403;-77
2023/05/22 04:59:10;;;;;;;;;15.33;10.67;;;;;17.74;100.00;101365.13;5056610;28;61801;-78
2023/05/22 05:01:36;;;;;;;;;14.00;11.67;;;;;17.76;100.00;101371.31;5057364;28;46384;-77
2023/05/22 05:04:02;;;;;;;;;13.67;10.00;;;;;17.75;100.00;101375.78;5049935;28;45482;-77
2023/05/22 05:06:27;;;;;;;;;12.00;9.00;;;;;17.76;100.00;101374.88;5057404;28;45513;-77
2023/05/22 05:08:53;;;;;;;;;9.67;9.33;;;;;17.77;100.00;101373.97;5057491;28;45314;-77
2023/05/22 05:11:20;;;;;;;;;11.33;11.00;;;;;17.77;100.00;101373.09;5057687;28;46427;-76
2023/05/22 05:13:45;;;;;;;;;10.00;10.00;;;;;17.80;100.00;101378.41;5056422;28;45476;-78
2023/05/22 05:16:10;;;;;;;;;9.00;9.00;;;;;17.80;100.00;101381.09;5057143;28;45888;-78
2023/05/22 05:18:36;;;;;;;;;13.00;10.33;;;;;17.80;100.00;101381.97;5047423;28;45588;-78
2023/05/22 05:21:01;;;;;;;;;14.00;10.00;;;;;17.75;100.00;101373.13;5038578;28;62293;-77
2023/05/22 05:23:26;;;;;;;;;13.00;11.67;;;;;17.75;100.00;101370.44;5056194;28;51697;-78
2023/05/22 05:25:52;;;;;;;;;14.33;11.33;;;;;17.74;100.00;101366.00;5056464;28;55295;-78
2023/05/22 05:28:17;;;;;;;;;9.00;9.00;;;;;17.74;100.00;101376.69;5057129;28;45419;-79
2023/05/22 05:30:43;;;;;;;;;10.00;7.00;;;;;17.74;100.00;101367.78;5056450;28;61018;-78
2023/05/22 05:33:08;;;;;;;;;9.33;9.33;;;;;17.72;100.00;101373.13;5056173;28;59489;-79
2023/05/22 05:35:33;;;;;;;;;9.00;9.00;;;;;17.70;100.00;101369.56;5057227;28;45307;-77
2023/05/22 05:37:59;;;;;;;;;12.00;10.67;;;;;17.72;100.00;101372.22;5056330;28;45325;-77
2023/05/22 05:40:24;;;;;;;;;12.00;11.00;;;;;17.68;100.00;101366.00;5056547;28;45762;-79
2023/05/22 05:42:49;;;;;;;;;15.00;10.00;;;;;17.67;100.00;101366.91;5056256;28;45443;-77
2023/05/22 05:45:15;;;;;;;;;10.67;10.00;;;;;17.65;100.00;101363.38;5056359;28;45553;-78
2023/05/22 05:47:40;;;;;;;;;13.00;9.00;;;;;17.67;100.00;101364.25;5054808;28;45466;-77
2023/05/22 05:50:06;;;;;;;;;10.00;8.67;;;;;17.65;100.00;101359.84;5054815;28;47515;-77
2023/05/22 05:52:32;;;;;;;;;9.33;9.00;;;;;17.65;100.00;101363.38;5053696;28;45528;-76
2023/05/22 05:54:59;;;;;;;;;10.00;9.00;;;;;17.65;100.00;101367.84;5050157;28;45458;-77
2023/05/22 05:57:25;;;;;;;;;13.00;13.00;;;;;17.66;100.00;101366.94;5053822;28;45445;-77
2023/05/22 05:59:51;;;;;;;;;11.00;8.00;;;;;17.65;100.00;101355.38;5053167;28;46325;-79
2023/05/22 06:02:16;;;;;;;;;11.33;11.33;;;;;17.61;100.00;101358.97;5052884;28;45457;-84
2023/05/22 06:04:41;;;;;;;;;12.67;9.67;;;;;17.60;100.00;101359.88;5053111;28;56877;-79
2023/05/22 06:07:07;;;;;;;;;12.00;11.33;;;;;17.54;100.00;101346.59;5050790;28;53593;-78
2023/05/22 06:09:32;;;;;;;;;11.00;8.33;;;;;17.52;100.00;101354.63;5049834;28;46800;-78
2023/05/22 06:11:57;;;;;;;;;12.00;9.33;;;;;17.52;100.00;101359.97;5047611;28;65557;-74
2023/05/22 06:14:23;;;;;;;;;9.00;9.00;;;;;17.51;100.00;101354.59;5052472;28;54516;-77
2023/05/22 06:16:48;;;;;;;;;14.00;11.33;;;;;17.51;100.00;101358.16;5051485;28;52507;-79
2023/05/22 06:19:13;;;;;;;;;12.00;10.00;;;;;17.52;100.00;101364.38;5054461;28;45894;-76
2023/05/22 06:21:39;;;;;;;;;11.33;10.33;;;;;17.53;100.00;101360.84;5049545;28;59641;-76
2023/05/22 06:24:05;;;;;;;;;13.33;9.67;;;;;17.54;100.00;101360.81;5048242;28;58232;-74
2023/05/22 06:26:30;;;;;;;;;14.67;10.67;;;;;17.54;100.00;101359.94;5050130;28;45963;-76
2023/05/22 06:28:55;;;;;;;;;12.00;9.00;;;;;17.56;100.00;101371.47;5052857;28;46642;-78
2023/05/22 06:31:21;;;;;;;;;11.67;10.67;;;;;17.59;100.00;101374.13;5054191;28;45647;-78
2023/05/22 06:33:46;;;;;;;;;14.00;12.00;;;;;17.59;100.00;101368.78;5053893;28;45464;-76
2023/05/22 06:36:12;;;;;;;;;9.67;9.67;;;;;17.65;100.00;101376.72;5051412;28;45459;-77
2023/05/22 06:38:38;;;;;;;;;10.67;10.67;;;;;17.67;100.00;101368.69;5048469;28;46722;-76
2023/05/22 06:41:04;;;;;;;;;12.67;10.00;;;;;17.71;100.00;101376.69;5046565;28;45524;-79
2023/05/22 06:43:29;;;;;;;;;11.33;11.00;;;;;17.76;100.00;101379.34;5032510;28;45518;-76
2023/05/22 06:45:55;;;;;;;;;10.33;9.33;;;;;17.69;100.00;101381.16;5046412;28;45570;-76
2023/05/22 06:48:20;;;;;;;;;11.67;9.33;;;;;17.61;100.00;101387.47;5049220;28;45771;-76
2023/05/22 06:50:46;;;;;;;;;11.67;10.00;;;;;17.49;100.00;101377.78;5052206;28;45514;-77
2023/05/22 06:53:11;;;;;;;;;11.00;9.67;;;;;17.43;100.00;101377.84;5035893;28;45474;-77
2023/05/22 06:55:36;;;;;;;;;11.67;11.00;;;;;17.37;100.00;101383.22;5050203;28;45613;-76
2023/05/22 06:58:02;;;;;;;;;10.67;9.00;;;;;17.32;100.00;101382.38;5050392;28;48740;-76
2023/05/22 07:00:28;;;;;;;;;12.67;10.67;;;;;17.29;100.00;101384.16;5054270;28;45420;-75
2023/05/22 07:02:53;;;;;;;;;9.00;8.33;;;;;17.27;100.00;101380.63;5055144;28;45506;-77
2023/05/22 07:05:18;;;;;;;;;11.00;10.00;;;;;17.28;100.00;101387.72;5058957;28;45532;-77
2023/05/22 07:07:44;;;;;;;;;10.00;9.00;;;;;17.27;100.00;101382.41;5055584;28;61908;-76
2023/05/22 07:10:09;;;;;;;;;12.33;9.67;;;;;17.26;100.00;101381.53;5057656;28;56086;-78
2023/05/22 07:12:35;;;;;;;;;11.00;9.00;;;;;17.25;100.00;101385.06;5057514;28;45320;-76
2023/05/22 07:15:00;;;;;;;;;12.00;11.00;;;;;17.27;100.00;101391.31;5049363;28;45527;-76
2023/05/22 07:17:26;;;;;;;;;9.00;9.00;;;;;17.24;100.00;101385.97;5036746;28;61153;-75
2023/05/22 07:19:51;;;;;;;;;14.33;8.67;;;;;17.24;100.00;101401.97;5054011;28;45441;-77
2023/05/22 07:22:16;;;;;;;;;9.67;8.33;;;;;17.25;100.00;101397.53;5032084;28;45518;-77
2023/05/22 07:24:42;;;;;;;;;14.67;14.33;;;;;17.26;100.00;101404.66;5046874;28;45545;-76
2023/05/22 07:27:08;;;;;;;;;10.00;9.00;;;;;17.31;100.00;101401.94;5058126;28;46561;-76
2023/05/22 07:29:33;;;;;;;;;14.33;10.00;;;;;17.36;100.00;101408.13;5038460;28;45503;-76
2023/05/22 07:31:59;;;;;;;;;9.00;9.00;;;;;17.39;100.00;101408.13;5055179;28;45504;-76
2023/05/22 07:34:30;;;;;;;;;12.00;12.00;;;;;17.43;100.00;101393.84;5053190;28;53612;-77
2023/05/22 07:36:56;;;;;;;;;15.67;13.00;;;;;17.51;100.00;101400.88;5037798;28;46458;-76
2023/05/22 07:39:21;;;;;;;;;10.00;10.00;;;;;17.57;100.00;101405.28;5056605;28;45403;-77
2023/05/22 07:41:49;;;;;;;;;16.67;12.67;;;;;17.64;100.00;101404.34;5055357;28;45806;-76
2023/05/22 07:44:14;;;;;;;;;14.33;9.33;;;;;17.74;100.00;101411.41;5052926;28;45797;-76
2023/05/22 07:46:39;;;;;;;;;13.33;12.00;;;;;17.84;100.00;101412.19;5053928;28;45693;-76
2023/05/22 07:49:05;;;;;;;;;11.00;10.00;;;;;17.93;100.00;101413.91;5054630;28;45799;-78
2023/05/22 07:51:30;;;;;;;;;12.00;10.67;;;;;18.02;100.00;101413.81;5053602;28;45496;-77
2023/05/22 07:53:56;;;;;;;;;15.00;14.00;;;;;18.11;100.00;101412.81;5054252;28;45732;-77
2023/05/22 07:56:21;;;;;;;;;16.67;10.00;;;;;18.24;100.00;101425.16;5056185;28;62374;-76
2023/05/22 07:58:47;;;;;;;;;12.67;11.33;;;;;18.37;100.00;101424.09;5054963;28;49261;-79
2023/05/22 08:01:14;;;;;;;;;8.67;8.00;;;;;18.55;100.00;101418.53;5055998;28;45563;-75
2023/05/22 08:03:39;;;;;;;;;12.67;11.67;;;;;18.68;100.00;101421.97;5050040;28;45547;-78
2023/05/22 08:06:06;;;;;;;;;12.00;11.00;;;;;18.81;100.00;101407.53;5034883;28;46600;-76
2023/05/22 08:08:32;;;;;;;;;13.00;12.00;;;;;18.94;100.00;101410.03;5052983;28;45429;-79
2023/05/22 08:10:58;;;;;;;;;10.33;10.33;;;;;19.03;100.00;101401.88;5054573;28;45886;-77
2023/05/22 08:13:23;;;;;;;;;9.00;9.00;;;;;19.09;100.00;101413.38;5055255;28;45540;-77
2023/05/22 08:15:49;;;;;;;;;12.00;11.00;;;;;19.17;100.00;101413.25;5051774;28;46502;-76
2023/05/22 08:18:14;;;;;;;;;11.67;11.00;;;;;19.21;100.00;101406.94;5055192;28;45525;-79
2023/05/22 08:20:40;;;;;;;;;14.33;12.33;;;;;19.24;100.00;101417.63;5053475;28;45512;-76
2023/05/22 08:23:05;;;;;;;;;13.00;11.33;;;;;19.27;100.00;101412.19;5054990;28;47128;-77
2023/05/22 08:25:31;;;;;;;;;10.33;10.00;;;;;19.31;100.00;101413.91;5054825;28;60406;-77
2023/05/22 08:27:56;;;;;;;;;14.33;12.33;;;;;19.36;100.00;101420.09;5052936;28;45424;-78
2023/05/22 08:30:21;;;;;;;;;10.67;10.00;;;;;19.37;100.00;101423.66;5049169;28;58037;-79
2023/05/22 08:32:47;;;;;;;;;14.00;12.33;;;;;19.42;100.00;101419.09;5050953;28;45449;-77
2023/05/22 08:35:13;;;;;;;;;13.67;12.33;;;;;19.48;100.00;101420.81;5048978;28;67180;-77
2023/05/22 08:37:38;;;;;;;;;14.00;13.00;;;;;19.51;100.00;101420.75;5052757;28;45544;-80
2023/05/22 08:40:04;;;;;;;;;16.00;13.00;;;;;19.57;100.00;101417.97;5033679;28;45441;-77
2023/05/22 08:42:30;;;;;;;;;19.00;13.33;;;;;19.61;100.00;101417.06;5033277;28;45519;-77
2023/05/22 08:44:56;;;;;;;;;19.00;12.33;;;;;19.67;100.00;101418.75;5054240;28;46476;-78
2023/05/22 08:47:24;;;;;;;;;12.33;12.00;;;;;19.73;100.00;101419.50;5054024;28;45382;-78
2023/05/22 08:49:51;;;;;;;;;10.33;10.33;;;;;19.80;100.00;101414.94;5054731;28;45357;-80
2023/05/22 08:52:33;;;;;;;;;12.67;12.67;;;;;19.85;100.00;101418.41;5033677;28;45392;-78
2023/05/22 08:54:58;;;;;;;;;16.33;13.00;;;;;19.92;100.00;101419.16;5038056;28;47531;-77
2023/05/22 08:57:24;;;;;;;;;12.00;11.00;;;;;19.99;100.00;101423.53;5037169;28;45423;-78
2023/05/22 08:59:50;;;;;;;;;13.33;13.33;;;;;20.12;100.00;101430.41;5037895;28;45485;-76
2023/05/22 09:02:16;;;;;;;;;10.67;10.67;;;;;20.24;100.00;101427.53;5055152;28;45418;-76
2023/05/22 09:04:41;;;;;;;;;11.33;10.33;;;;;20.33;100.00;101429.13;5049396;28;46501;-76
2023/05/22 09:07:07;;;;;;;;;13.00;10.33;;;;;20.43;100.00;101436.06;5055436;28;45430;-77
2023/05/22 09:09:39;;;;;;;;;15.67;14.00;;;;;20.48;100.00;101430.66;5052419;28;45416;-76
2023/05/22 09:12:08;;;;;;;;;13.33;12.33;;;;;20.50;100.00;101432.38;5053529;28;45442;-77
2023/05/22 09:14:52;;;;;;;;;14.00;10.33;;;;;20.49;100.00;101427.94;5051506;28;46939;-77
2023/05/22 09:17:19;;;;;;;;;13.00;13.00;;;;;20.56;100.00;101431.38;5050400;28;45607;-80
2023/05/22 09:19:45;;;;;;;;;13.00;11.00;;;;;20.61;100.00;101429.47;5054269;28;45480;-76
2023/05/22 09:22:11;;;;;;;;;13.00;11.67;;;;;20.74;100.00;101425.63;5053816;28;46369;-76
2023/05/22 09:24:38;;;;;;;;;16.33;12.33;;;;;20.90;100.00;101431.53;5051595;28;46927;-76
2023/05/22 09:27:08;;;;;;;;;17.33;11.00;;;;;21.09;100.00;101432.91;5035247;28;45591;-77
2023/05/22 09:29:55;;;;;;;;;12.67;10.33;;;;;21.29;100.00;101428.84;5054782;28;45542;-78
2023/05/22 09:32:20;;;;;;;;;16.33;10.33;;;;;21.39;100.00;101431.31;5018601;28;45593;-75
2023/05/22 09:34:46;;;;;;;;;11.67;11.67;;;;;21.50;100.00;101438.22;5051929;28;47519;-77
2023/05/22 09:37:15;;;;;;;;;16.33;12.00;;;;;21.58;100.00;101434.44;5053332;28;45529;-76
2023/05/22 09:39:46;;;;;;;;;11.67;11.67;;;;;21.69;100.00;101434.19;5052403;28;45403;-76
2023/05/22 09:42:14;;;;;;;;;10.33;9.67;;;;;21.75;100.00;101439.38;5054387;28;45620;-75
2023/05/22 09:44:43;;;;;;;;;11.00;9.67;;;;;21.85;100.00;101430.16;5051044;28;46716;-77
2023/05/22 09:47:09;;;;;;;;;16.67;8.33;;;;;21.91;100.00;101437.19;5053765;28;45340;-76
2023/05/22 09:49:44;;;;;;;;;12.67;10.00;;;;;21.99;100.00;101435.16;5053206;28;46334;-75
2023/05/22 09:52:13;;;;;;;;;11.33;11.33;;;;;22.00;100.00;101428.88;5051587;28;45566;-75
2023/05/22 09:54:45;;;;;;;;;14.33;9.00;;;;;22.00;100.00;101434.25;5053966;28;46294;-74
2023/05/22 09:57:14;;;;;;;;;13.00;10.67;;;;;21.97;100.00;101429.84;5035915;28;45445;-75
2023/05/22 09:59:41;;;;;;;;;13.00;13.00;;;;;21.96;100.00;101435.25;5020061;28;46019;-74
2023/05/22 10:02:07;;;;;;;;;14.00;12.67;;;;;21.91;100.00;101432.69;5035530;28;45483;-76
2023/05/22 10:04:33;;;;;;;;;13.67;11.00;;;;;21.89;100.00;101431.84;5047329;28;46954;-75
2023/05/22 10:07:01;;;;;;;;;14.67;10.33;;;;;21.88;100.00;101423.81;5051540;28;45437;-76
2023/05/22 10:09:29;;;;;;;;;12.00;12.00;;;;;21.88;100.00;101429.19;5051851;28;45413;-77
2023/05/22 10:11:57;;;;;;;;;13.00;11.00;;;;;21.89;100.00;101434.53;5037350;28;45503;-76
2023/05/22 10:14:23;;;;;;;;;10.33;8.00;;;;;21.92;100.00;101428.19;5046550;28;45926;-76
2023/05/22 10:16:49;;;;;;;;;14.67;14.67;;;;;21.93;100.00;101421.88;5054564;28;50295;-77
2023/05/22 10:19:14;;;;;;;;;16.33;12.67;;;;;21.91;100.00;101423.75;5040751;28;45602;-78
2023/05/22 10:21:40;;;;;;;;;17.33;14.67;;;;;21.90;100.00;101417.47;5031401;28;45781;-77
2023/05/22 10:24:06;;;;;;;;;17.00;13.33;;;;;21.91;100.00;101413.88;5050313;28;45554;-75
2023/05/22 10:26:32;;;;;;;;;22.67;14.33;;;;;21.94;100.00;101418.25;5052004;28;45459;-77
2023/05/22 10:29:20;;;;;;;;;14.33;14.00;;;;;21.91;100.00;101411.19;5053934;28;45340;-75
2023/05/22 10:31:58;;;;;;;;;18.00;15.00;;;;;21.90;100.00;101412.09;5053468;28;45315;-74
2023/05/22 10:34:29;;;;;;;;;15.00;15.00;;;;;21.92;100.00;101410.25;5046597;28;46499;-73
2023/05/22 10:37:05;;;;;;;;;19.67;17.00;;;;;22.01;100.00;101410.94;5052065;28;45524;-78
2023/05/22 10:39:47;;;;;;;;;19.00;14.00;;;;;22.10;100.00;101416.03;5054796;28;45433;-79
2023/05/22 10:42:13;;;;;;;;;14.33;13.33;;;;;22.15;100.00;101409.66;5057963;28;45442;-78
2023/05/22 10:44:39;;;;;;;;;15.00;13.33;;;;;22.18;100.00;101409.56;5057353;28;47249;-78
2023/05/22 10:47:10;;;;;;;;;12.00;12.00;;;;;22.19;100.00;101410.44;5057278;28;46057;-76
2023/05/22 10:49:35;;;;;;;;;20.67;15.00;;;;;22.19;100.00;101397.88;5052016;28;45400;-77
2023/05/22 10:52:02;;;;;;;;;16.67;13.00;;;;;22.22;100.00;101407.69;5035691;28;45661;-75
2023/05/22 10:54:41;;;;;;;;;22.67;17.33;;;;;22.27;100.00;101397.69;5051229;28;46527;-75
2023/05/22 10:57:19;;;;;;;;;17.00;15.00;;;;;22.29;100.00;101394.94;5049372;28;45545;-75
2023/05/22 10:59:47;;;;;;;;;20.67;16.67;;;;;22.33;100.00;101383.16;5055819;28;45371;-76
2023/05/22 11:02:29;;;;;;;;;17.67;14.33;;;;;22.39;100.00;101388.38;5037923;28;45487;-76
2023/05/22 11:05:24;;;;;;;;;15.67;14.33;;;;;22.39;100.00;101386.56;5052278;28;46618;-77
2023/05/22 11:07:50;;;;;;;;;18.00;14.33;;;;;22.42;100.00;101389.13;5051703;28;45575;-77
2023/05/22 11:10:25;;;;;;;;;15.33;14.33;;;;;22.44;100.00;101379.22;5053431;28;62650;-78